createdAt,value
2023-12-30T00:04:07.366Z,0.20
2023-12-30T00:09:10.992Z,0.30
2023-12-30T00:14:14.273Z,0.20
2023-12-30T00:19:19.388Z,0.33
2023-12-30T00:24:22.775Z,0.20
2023-12-30T00:29:26.926Z,0.30
2023-12-30T00:34:34.652Z,0.27
2023-12-30T00:39:37.860Z,0.40
2023-12-30T00:44:41.264Z,0.50
2023-12-30T00:49:46.271Z,0.37
2023-12-30T00:54:51.380Z,0.40
2023-12-30T00:59:54.951Z,0.50
2023-12-30T01:04:59.794Z,0.30
2023-12-30T01:10:03.516Z,0.50
2023-12-30T01:15:07.767Z,0.37
2023-12-30T01:20:13.267Z,0.50
2023-12-30T01:25:16.701Z,0.50
2023-12-30T01:30:20.475Z,0.60
2023-12-30T01:35:25.236Z,0.60
2023-12-30T01:40:28.641Z,0.70
2023-12-30T01:45:32.049Z,0.30
2023-12-30T01:50:37.048Z,0.63
2023-12-30T01:55:40.390Z,0.63
2023-12-30T02:00:44.570Z,0.53
2023-12-30T02:05:50.771Z,0.40
2023-12-30T02:10:54.430Z,0.70
2023-12-30T02:15:59.568Z,0.40
2023-12-30T02:21:04.286Z,0.50
2023-12-30T02:26:09.676Z,0.60
2023-12-30T02:31:13.161Z,0.50
2023-12-30T02:36:16.943Z,0.60
2023-12-30T02:41:21.513Z,0.30
2023-12-30T02:46:24.832Z,0.40
2023-12-30T02:51:28.062Z,0.57
2023-12-30T02:56:32.681Z,0.50
2023-12-30T03:01:36.215Z,0.77
2023-12-30T03:06:39.505Z,0.70
2023-12-30T03:11:44.546Z,0.80
2023-12-30T03:16:47.783Z,0.30
2023-12-30T03:21:51.030Z,0.97
2023-12-30T03:26:55.672Z,0.80
2023-12-30T03:31:58.904Z,1.47
2023-12-30T03:37:02.279Z,0.63
2023-12-30T03:42:07.674Z,0.77
2023-12-30T03:47:11.447Z,0.70
2023-12-30T03:52:15.101Z,0.70
2023-12-30T03:57:19.659Z,0.90
2023-12-30T04:02:23.062Z,1.10
2023-12-30T04:07:26.886Z,0.90
2023-12-30T04:12:34.770Z,0.43
2023-12-30T04:17:38.247Z,0.50
2023-12-30T04:22:41.803Z,0.60
2023-12-30T04:27:46.381Z,0.80
2023-12-30T04:32:50.188Z,0.73
2023-12-30T04:37:53.838Z,0.60
2023-12-30T04:43:00.079Z,0.67
2023-12-30T04:48:03.804Z,1.07
2023-12-30T04:53:07.092Z,0.63
2023-12-30T04:58:12.061Z,0.53
2023-12-30T05:03:15.699Z,0.50
2023-12-30T05:08:19.169Z,0.90
2023-12-30T05:13:24.164Z,0.60
2023-12-30T05:18:27.571Z,0.73
2023-12-30T05:23:30.969Z,1.03
2023-12-30T05:28:35.616Z,1.10
2023-12-30T05:33:39.011Z,0.73
2023-12-30T05:38:42.283Z,0.80
2023-12-30T05:43:47.101Z,0.87
2023-12-30T05:48:51.390Z,0.70
2023-12-30T05:53:54.779Z,0.90
2023-12-30T05:58:59.404Z,0.57
2023-12-30T06:04:02.700Z,0.87
2023-12-30T06:09:06.003Z,0.63
2023-12-30T06:14:10.916Z,0.73
2023-12-30T06:19:17.604Z,0.87
2023-12-30T06:24:22.195Z,0.60
2023-12-30T06:29:29.668Z,0.70
2023-12-30T06:34:35.883Z,0.60
2023-12-30T06:39:39.219Z,0.70
2023-12-30T06:44:44.115Z,0.77
2023-12-30T06:49:47.687Z,0.77
2023-12-30T06:54:59.170Z,0.60
2023-12-30T07:00:12.003Z,1.00
2023-12-30T07:05:15.451Z,0.90
2023-12-30T07:10:18.953Z,0.67
2023-12-30T07:15:24.688Z,1.00
2023-12-30T07:20:28.229Z,0.87
2023-12-30T07:25:31.561Z,0.87
2023-12-30T07:30:36.382Z,0.50
2023-12-30T07:35:39.828Z,0.73
2023-12-30T07:40:43.327Z,0.50
2023-12-30T07:45:47.933Z,0.77
2023-12-30T07:50:51.130Z,0.40
2023-12-30T07:55:54.348Z,0.50
2023-12-30T08:00:59.382Z,0.60
2023-12-30T08:06:02.788Z,1.03
2023-12-30T08:11:06.346Z,0.40
2023-12-30T08:16:11.026Z,1.00
2023-12-30T08:21:14.391Z,0.80
2023-12-30T08:26:17.716Z,1.30
2023-12-30T08:31:22.413Z,0.80
2023-12-30T08:36:27.244Z,0.70
2023-12-30T08:41:30.501Z,0.70
2023-12-30T08:46:35.233Z,1.37
2023-12-30T08:51:38.705Z,0.50
2023-12-30T08:56:42.053Z,0.80
2023-12-30T09:01:46.890Z,0.67
2023-12-30T09:06:50.198Z,0.60
2023-12-30T09:11:53.712Z,1.63
2023-12-30T09:16:58.385Z,0.80
2023-12-30T09:22:02.429Z,0.87
2023-12-30T09:27:05.904Z,0.57
2023-12-30T09:32:10.656Z,0.50
2023-12-30T09:37:16.234Z,0.90
2023-12-30T09:42:19.686Z,0.60
2023-12-30T09:47:25.095Z,0.83
2023-12-30T09:52:28.401Z,0.60
2023-12-30T09:57:31.686Z,0.40
2023-12-30T10:02:36.794Z,0.77
2023-12-30T10:07:40.631Z,0.33
2023-12-30T10:12:44.360Z,0.40
2023-12-30T10:17:49.096Z,0.87
2023-12-30T10:22:53.275Z,2.00
2023-12-30T10:27:57.186Z,0.73
2023-12-30T10:33:09.627Z,0.73
2023-12-30T10:38:15.212Z,0.77
2023-12-30T10:43:20.169Z,0.70
2023-12-30T10:48:26.380Z,0.70
2023-12-30T10:53:32.593Z,0.97
2023-12-30T10:58:37.043Z,0.80
2023-12-30T11:03:41.975Z,0.63
2023-12-30T11:08:46.199Z,1.70
2023-12-30T11:13:49.528Z,1.53
2023-12-30T11:18:57.423Z,0.70
2023-12-30T11:24:04.488Z,1.20
2023-12-30T11:29:12.047Z,0.80
2023-12-30T11:34:17.420Z,0.60
2023-12-30T11:39:31.404Z,0.93
2023-12-30T11:44:34.789Z,0.80
2023-12-30T11:49:40.373Z,0.70
2023-12-30T11:54:43.872Z,1.13
2023-12-30T11:59:47.288Z,1.30
2023-12-30T12:04:52.149Z,0.50
2023-12-30T12:09:55.456Z,0.60
2023-12-30T12:14:59.161Z,1.17
2023-12-30T12:20:06.356Z,0.83
2023-12-30T12:25:11.045Z,0.97
2023-12-30T12:30:15.228Z,0.70
2023-12-30T12:35:22.271Z,0.77
2023-12-30T12:40:26.746Z,0.70
2023-12-30T12:45:31.493Z,0.77
2023-12-30T12:50:36.402Z,0.73
2023-12-30T12:55:39.826Z,0.63
2023-12-30T13:00:44.655Z,0.70
2023-12-30T13:05:50.847Z,0.97
2023-12-30T13:10:55.198Z,0.90
2023-12-30T13:16:00.946Z,0.73
2023-12-30T13:21:09.955Z,1.70
2023-12-30T13:26:13.923Z,0.97
2023-12-30T13:31:23.668Z,0.60
2023-12-30T13:36:30.494Z,0.87
2023-12-30T13:41:36.365Z,0.90
2023-12-30T13:46:58.558Z,0.50
2023-12-30T13:52:06.765Z,0.67
2023-12-30T13:57:14.290Z,1.20
2023-12-30T14:02:19.680Z,0.93
2023-12-30T14:07:28.358Z,0.90
2023-12-30T14:12:31.794Z,0.60
2023-12-30T14:17:36.395Z,0.80
2023-12-30T14:22:42.772Z,1.27
2023-12-30T14:27:46.532Z,1.07
2023-12-30T14:32:49.947Z,0.80
2023-12-30T14:37:55.607Z,0.63
2023-12-30T14:42:59.061Z,2.17
2023-12-30T14:48:03.220Z,2.50
2023-12-30T14:53:08.355Z,3.40
2023-12-30T14:58:11.961Z,1.27
2023-12-30T15:03:15.736Z,0.97
2023-12-30T15:08:20.699Z,2.20
2023-12-30T15:13:24.125Z,1.67
2023-12-30T15:18:27.484Z,1.53
2023-12-30T15:23:32.567Z,1.00
2023-12-30T15:28:36.050Z,1.50
2023-12-30T15:33:39.628Z,1.03
2023-12-30T15:38:44.502Z,1.10
2023-12-30T15:43:47.915Z,1.57
2023-12-30T15:48:51.633Z,1.20
2023-12-30T15:53:56.611Z,0.90
2023-12-30T15:59:00.199Z,1.20
2023-12-30T16:04:04.524Z,0.97
2023-12-30T16:09:09.756Z,1.33
2023-12-30T16:14:13.919Z,1.50
2023-12-30T16:19:19.760Z,1.00
2023-12-30T16:24:25.275Z,1.00
2023-12-30T16:29:28.545Z,1.27
2023-12-30T16:34:34.567Z,2.73
2023-12-30T16:39:39.728Z,4.90
2023-12-30T16:44:43.044Z,4.67
2023-12-30T16:49:46.445Z,2.57
2023-12-30T16:54:52.023Z,2.17
2023-12-30T16:59:55.269Z,1.93
2023-12-30T17:04:58.716Z,1.23
2023-12-30T17:10:05.614Z,1.53
2023-12-30T17:15:09.721Z,1.97
2023-12-30T17:20:13.440Z,2.40
2023-12-30T17:25:18.366Z,1.13
2023-12-30T17:30:22.082Z,1.50
2023-12-30T17:35:26.110Z,1.83
2023-12-30T17:40:30.733Z,2.00
2023-12-30T17:45:34.056Z,1.40
2023-12-30T17:50:37.257Z,1.37
2023-12-30T17:55:42.514Z,1.23
2023-12-30T18:00:46.139Z,1.27
2023-12-30T18:05:49.574Z,1.00
2023-12-30T18:10:54.362Z,1.30
2023-12-30T18:15:59.878Z,1.20
2023-12-30T18:21:03.477Z,1.10
2023-12-30T18:26:13.825Z,0.80
2023-12-30T18:31:17.505Z,1.00
2023-12-30T18:36:21.032Z,1.00
2023-12-30T18:41:25.794Z,1.13
2023-12-30T18:46:30.347Z,1.27
2023-12-30T18:51:33.696Z,1.33
2023-12-30T18:56:38.993Z,2.20
2023-12-30T19:01:44.651Z,3.10
2023-12-30T19:06:48.009Z,1.93
2023-12-30T19:11:52.829Z,2.20
2023-12-30T19:16:56.151Z,3.80
2023-12-30T19:21:59.706Z,3.20
2023-12-30T19:27:04.617Z,2.10
2023-12-30T19:32:08.993Z,2.10
2023-12-30T19:37:13.225Z,4.33
2023-12-30T19:42:18.835Z,10.70
2023-12-30T19:47:22.654Z,12.50
2023-12-30T19:52:26.998Z,6.63
2023-12-30T19:57:32.043Z,6.43
2023-12-30T20:02:35.660Z,3.93
2023-12-30T20:07:39.562Z,1.77
2023-12-30T20:12:45.366Z,1.57
2023-12-30T20:17:49.038Z,2.33
2023-12-30T20:22:52.563Z,5.23
2023-12-30T20:27:58.129Z,5.40
2023-12-30T20:33:02.287Z,16.60
2023-12-30T20:38:06.191Z,37.60
2023-12-30T20:43:11.088Z,21.30
2023-12-30T20:48:14.627Z,15.07
2023-12-30T20:53:18.090Z,11.00
2023-12-30T20:58:22.858Z,9.43
2023-12-30T21:03:27.402Z,7.27
2023-12-30T21:08:30.934Z,9.10
2023-12-30T21:13:37.923Z,6.50
2023-12-30T21:18:41.310Z,6.50
2023-12-30T21:23:46.704Z,7.70
2023-12-30T21:28:51.526Z,11.60
2023-12-30T21:33:55.209Z,9.00
2023-12-30T21:38:58.615Z,23.53
2023-12-30T21:44:03.639Z,9.73
2023-12-30T21:49:07.060Z,7.27
2023-12-30T21:54:11.141Z,4.07
2023-12-30T21:59:15.750Z,11.27
2023-12-30T22:04:20.785Z,16.43
2023-12-30T22:09:24.019Z,10.47
2023-12-30T22:14:28.948Z,8.70
2023-12-30T22:19:32.917Z,5.80
2023-12-30T22:24:37.779Z,6.87
2023-12-30T22:29:43.782Z,5.90
2023-12-30T22:34:47.422Z,6.50
2023-12-30T22:39:51.868Z,5.27
2023-12-30T22:44:57.807Z,4.90
2023-12-30T22:50:01.525Z,3.40
2023-12-30T22:55:05.597Z,2.90
2023-12-30T23:00:12.528Z,3.03
2023-12-30T23:05:15.970Z,1.47
2023-12-30T23:10:19.788Z,21.43
2023-12-30T23:15:25.969Z,8.40
2023-12-30T23:20:29.347Z,4.10
2023-12-30T23:25:33.306Z,4.20
2023-12-30T23:30:38.102Z,2.00
2023-12-30T23:35:41.367Z,2.07
2023-12-30T23:40:44.795Z,1.87
2023-12-30T23:45:49.635Z,1.00
2023-12-30T23:50:53.269Z,1.60
2023-12-30T23:55:56.916Z,1.33
